createdAt,value
2022-10-30T00:01:48.256Z,98943.48
2022-10-30T00:04:15.668Z,98945.94
2022-10-30T00:06:42.683Z,98949.23
2022-10-30T00:09:10.794Z,98946.57
2022-10-30T00:11:37.834Z,98942.31
2022-10-30T00:14:04.930Z,98948.20
2022-10-30T00:16:31.873Z,98947.19
2022-10-30T00:18:59.016Z,98940.04
2022-10-30T00:21:26.226Z,98943.75
2022-10-30T00:23:53.992Z,98945.86
2022-10-30T00:26:22.031Z,98950.11
2022-10-30T00:28:53.617Z,98947.21
2022-10-30T00:31:21.178Z,98943.98
2022-10-30T00:33:52.351Z,98941.55
2022-10-30T00:36:19.883Z,98939.48
2022-10-30T00:38:46.975Z,98933.77
2022-10-30T00:41:19.238Z,98931.59
2022-10-30T00:43:46.863Z,98927.07
2022-10-30T00:46:26.089Z,98920.90
2022-10-30T00:48:56.786Z,98924.38
2022-10-30T00:51:23.919Z,98923.92
2022-10-30T00:53:51.022Z,98919.77
2022-10-30T00:56:19.762Z,98913.73
2022-10-30T00:58:53.192Z,98913.14
2022-10-30T01:01:21.562Z,98911.88
2022-10-30T01:03:49.401Z,98913.02
2022-10-30T01:06:18.284Z,98912.42
2022-10-30T01:08:45.823Z,98911.59
2022-10-30T01:11:13.087Z,98906.45
2022-10-30T01:13:41.426Z,98904.77
2022-10-30T01:16:34.600Z,98907.66
2022-10-30T01:19:30.203Z,98915.76
2022-10-30T01:22:21.935Z,98923.11
2022-10-30T01:25:08.066Z,98925.09
2022-10-30T01:28:06.769Z,98930.57
2022-10-30T01:30:41.211Z,98941.31
2022-10-30T01:33:33.270Z,98946.27
2022-10-30T01:36:22.690Z,98946.70
2022-10-30T01:39:03.021Z,98944.94
2022-10-30T01:41:30.356Z,98943.41
2022-10-30T01:44:01.751Z,98958.92
2022-10-30T01:47:11.663Z,98967.67
2022-10-30T01:49:41.981Z,98975.12
2022-10-30T01:52:39.952Z,98974.02
2022-10-30T01:55:21.644Z,98974.26
2022-10-30T01:58:02.723Z,98964.98
2022-10-30T02:00:29.765Z,98956.59
2022-10-30T02:02:57.192Z,98949.88
2022-10-30T02:05:36.973Z,98942.93
2022-10-30T02:08:04.028Z,98942.93
2022-10-30T02:10:31.992Z,98945.33
2022-10-30T02:12:59.337Z,98933.46
2022-10-30T02:15:26.385Z,98926.91
2022-10-30T02:17:55.259Z,98920.08
2022-10-30T02:20:22.584Z,98909.15
2022-10-30T02:22:53.034Z,98904.33
2022-10-30T02:25:23.488Z,98910.05
2022-10-30T02:27:50.533Z,98914.77
2022-10-30T02:30:17.652Z,98911.94
2022-10-30T02:32:44.837Z,98914.58
2022-10-30T02:35:12.822Z,98930.28
2022-10-30T02:37:40.360Z,98933.66
2022-10-30T02:40:08.631Z,98928.36
2022-10-30T02:42:36.108Z,98927.90
2022-10-30T02:45:03.857Z,98925.54
2022-10-30T02:47:30.852Z,98934.38
2022-10-30T02:49:57.855Z,98937.80
2022-10-30T02:52:26.297Z,98941.87
2022-10-30T02:54:53.378Z,98937.80
2022-10-30T02:57:20.410Z,98938.15
2022-10-30T02:59:47.491Z,98943.98
2022-10-30T03:02:14.922Z,98952.17
2022-10-30T03:04:42.115Z,98948.09
2022-10-30T03:07:11.512Z,98940.75
2022-10-30T03:09:38.631Z,98931.75
2022-10-30T03:12:05.951Z,98941.76
2022-10-30T03:14:33.138Z,98943.05
2022-10-30T03:17:00.429Z,98931.94
2022-10-30T03:19:27.460Z,98935.08
2022-10-30T03:21:55.077Z,98944.20
2022-10-30T03:24:22.162Z,98939.77
2022-10-30T03:26:49.703Z,98943.83
2022-10-30T03:29:16.993Z,98955.10
2022-10-30T03:31:44.107Z,98952.75
2022-10-30T03:34:14.528Z,98951.05
2022-10-30T03:36:42.013Z,98961.13
2022-10-30T03:39:09.240Z,98952.19
2022-10-30T03:41:36.557Z,98954.80
2022-10-30T03:44:03.744Z,98952.23
2022-10-30T03:46:31.817Z,98947.73
2022-10-30T03:49:11.053Z,98936.21
2022-10-30T03:51:38.244Z,98957.00
2022-10-30T03:54:06.686Z,98961.57
2022-10-30T03:56:33.790Z,98955.67
2022-10-30T03:59:00.977Z,98951.77
2022-10-30T04:01:28.316Z,98940.43
2022-10-30T04:03:56.833Z,98940.79
2022-10-30T04:06:24.996Z,98928.27
2022-10-30T04:08:55.091Z,98933.02
2022-10-30T04:11:23.664Z,98931.09
2022-10-30T04:13:51.051Z,98946.80
2022-10-30T04:16:18.228Z,98940.24
2022-10-30T04:18:45.341Z,98939.77
2022-10-30T04:21:12.390Z,98945.40
2022-10-30T04:23:39.746Z,98946.70
2022-10-30T04:26:06.986Z,98953.23
2022-10-30T04:28:36.851Z,98953.90
2022-10-30T04:31:04.168Z,98960.34
2022-10-30T04:33:31.832Z,98958.73
2022-10-30T04:35:59.431Z,98960.74
2022-10-30T04:38:26.432Z,98965.71
2022-10-30T04:40:53.435Z,98961.90
2022-10-30T04:43:20.734Z,98966.48
2022-10-30T04:45:50.544Z,98970.55
2022-10-30T04:48:18.435Z,98971.84
2022-10-30T04:50:47.013Z,98977.02
2022-10-30T04:53:21.513Z,98979.92
2022-10-30T04:55:53.953Z,98974.36
2022-10-30T04:58:21.138Z,98986.88
2022-10-30T05:00:52.418Z,98984.09
2022-10-30T05:03:21.934Z,98985.02
2022-10-30T05:05:49.710Z,98978.02
2022-10-30T05:08:16.802Z,98983.58
2022-10-30T05:10:43.883Z,98979.37
2022-10-30T05:13:12.552Z,98975.09
2022-10-30T05:15:39.723Z,98977.00
2022-10-30T05:18:06.757Z,98984.01
2022-10-30T05:20:33.762Z,98978.48
2022-10-30T05:23:00.941Z,98977.60
2022-10-30T05:25:28.008Z,98972.55
2022-10-30T05:28:03.592Z,98977.52
2022-10-30T05:30:33.645Z,98983.92
2022-10-30T05:33:02.285Z,98979.30
2022-10-30T05:35:29.843Z,98987.55
2022-10-30T05:37:58.181Z,98986.30
2022-10-30T05:40:25.629Z,98986.16
2022-10-30T05:42:53.106Z,98996.59
2022-10-30T05:45:20.637Z,98990.18
2022-10-30T05:48:04.788Z,98984.84
2022-10-30T05:50:35.213Z,98990.59
2022-10-30T05:53:16.835Z,98995.16
2022-10-30T05:55:44.209Z,98999.17
2022-10-30T05:58:16.639Z,99014.44
2022-10-30T06:00:44.937Z,99012.89
2022-10-30T06:03:14.038Z,99011.17
2022-10-30T06:05:45.047Z,99010.14
2022-10-30T06:08:13.005Z,99017.44
2022-10-30T06:10:40.008Z,99009.63
2022-10-30T06:13:30.023Z,99016.47
2022-10-30T06:16:00.906Z,99023.29
2022-10-30T06:18:41.984Z,99024.88
2022-10-30T06:21:11.464Z,99026.74
2022-10-30T06:23:48.751Z,99023.41
2022-10-30T06:26:47.916Z,99025.80
2022-10-30T06:29:16.228Z,99033.63
2022-10-30T06:31:43.364Z,99025.58
2022-10-30T06:34:10.379Z,99027.77
2022-10-30T06:36:39.881Z,99031.83
2022-10-30T06:39:07.121Z,99036.49
2022-10-30T06:41:41.322Z,99024.19
2022-10-30T06:44:28.721Z,99027.56
2022-10-30T06:46:55.946Z,99026.14
2022-10-30T06:49:23.424Z,99026.34
2022-10-30T06:51:51.453Z,99028.28
2022-10-30T06:54:18.575Z,99035.47
2022-10-30T06:57:05.590Z,99027.52
2022-10-30T07:00:00.337Z,99036.83
2022-10-30T07:03:01.219Z,99040.25
2022-10-30T07:05:29.685Z,99035.13
2022-10-30T07:07:57.964Z,99034.22
2022-10-30T07:10:25.073Z,99041.86
2022-10-30T07:13:17.303Z,99047.75
2022-10-30T07:15:53.411Z,99049.15
2022-10-30T07:18:24.153Z,99050.69
2022-10-30T07:20:58.376Z,99042.77
2022-10-30T07:23:26.581Z,99041.13
2022-10-30T07:26:03.861Z,99041.30
2022-10-30T07:28:36.216Z,99045.70
2022-10-30T07:31:41.479Z,99046.09
2022-10-30T07:34:10.009Z,99035.83
2022-10-30T07:37:00.109Z,99036.23
2022-10-30T07:39:43.427Z,99034.40
2022-10-30T07:42:23.182Z,99040.74
2022-10-30T07:48:15.429Z,99028.53
2022-10-30T07:50:48.320Z,99029.73
2022-10-30T07:53:15.574Z,99033.05
2022-10-30T07:55:43.300Z,99028.91
2022-10-30T07:58:13.001Z,99029.89
2022-10-30T08:01:12.493Z,99027.20
2022-10-30T08:03:39.674Z,99022.84
2022-10-30T08:06:24.640Z,99029.09
2022-10-30T08:08:54.243Z,99026.91
2022-10-30T08:11:26.679Z,99025.91
2022-10-30T08:13:54.204Z,99018.60
2022-10-30T08:16:21.385Z,99016.73
2022-10-30T08:18:49.354Z,99018.03
2022-10-30T08:21:18.516Z,99018.77
2022-10-30T08:23:54.515Z,99010.36
2022-10-30T08:26:22.548Z,99018.95
2022-10-30T08:28:49.694Z,99016.39
2022-10-30T08:31:16.791Z,99022.94
2022-10-30T08:34:04.833Z,99026.19
2022-10-30T08:36:51.214Z,99018.99
2022-10-30T08:39:19.203Z,99018.45
2022-10-30T08:42:06.630Z,99025.95
2022-10-30T08:44:39.079Z,99027.56
2022-10-30T08:47:24.981Z,99032.73
2022-10-30T08:49:52.097Z,99030.23
2022-10-30T08:52:21.807Z,99028.80
2022-10-30T08:54:54.478Z,99025.80
2022-10-30T08:57:23.788Z,99026.14
2022-10-30T08:59:51.341Z,99026.51
2022-10-30T09:02:47.725Z,99028.14
2022-10-30T09:05:33.189Z,99026.45
2022-10-30T09:08:23.856Z,99022.80
2022-10-30T09:11:06.056Z,99018.27
2022-10-30T09:13:33.241Z,99021.30
2022-10-30T09:16:01.799Z,99027.94
2022-10-30T09:18:30.068Z,99031.85
2022-10-30T09:20:57.627Z,99033.52
2022-10-30T09:23:25.295Z,99036.80
2022-10-30T09:25:58.427Z,99028.08
2022-10-30T09:28:44.256Z,99036.83
2022-10-30T09:31:31.516Z,99024.60
2022-10-30T09:33:58.833Z,99034.53
2022-10-30T09:36:38.782Z,99033.95
2022-10-30T09:39:05.943Z,99036.89
2022-10-30T09:42:17.993Z,99035.64
2022-10-30T09:45:27.340Z,99037.51
2022-10-30T09:48:27.004Z,99017.83
2022-10-30T09:51:06.280Z,99017.39
2022-10-30T09:54:03.096Z,99016.98
2022-10-30T09:56:46.302Z,99025.63
2022-10-30T10:00:03.885Z,99019.97
2022-10-30T10:02:34.638Z,99027.25
2022-10-30T10:05:06.488Z,99025.16
2022-10-30T10:08:09.149Z,99023.38
2022-10-30T10:10:58.387Z,99007.70
2022-10-30T10:13:33.361Z,99011.58
2022-10-30T10:16:20.982Z,99004.65
2022-10-30T10:18:54.031Z,98994.95
2022-10-30T10:21:25.914Z,98993.66
2022-10-30T10:23:55.850Z,98988.31
2022-10-30T10:26:47.887Z,98987.44
2022-10-30T10:29:36.540Z,98983.72
2022-10-30T10:32:12.961Z,98986.34
2022-10-30T10:34:52.702Z,98969.28
2022-10-30T10:37:54.158Z,98977.79
2022-10-30T10:40:46.498Z,98959.19
2022-10-30T10:43:38.732Z,98956.80
2022-10-30T10:46:41.529Z,98954.43
2022-10-30T10:49:27.678Z,98971.38
2022-10-30T10:52:02.926Z,98974.09
2022-10-30T10:54:31.345Z,98966.52
2022-10-30T10:57:00.021Z,98964.73
2022-10-30T10:59:39.252Z,98971.45
2022-10-30T11:02:06.403Z,98969.81
2022-10-30T11:04:37.547Z,98964.91
2022-10-30T11:07:23.316Z,98963.86
2022-10-30T11:09:54.602Z,98961.42
2022-10-30T11:12:27.565Z,98970.60
2022-10-30T11:14:59.694Z,98970.01
2022-10-30T11:17:32.917Z,98958.74
2022-10-30T11:20:02.227Z,98964.94
2022-10-30T11:22:33.890Z,98965.73
2022-10-30T11:25:23.069Z,98958.04
2022-10-30T11:28:00.024Z,98956.86
2022-10-30T11:30:28.793Z,98957.83
2022-10-30T11:32:58.192Z,98938.86
2022-10-30T11:35:25.451Z,98953.73
2022-10-30T11:38:12.243Z,98937.94
2022-10-30T11:40:41.265Z,98941.33
2022-10-30T11:43:08.836Z,98940.71
2022-10-30T11:45:41.100Z,98940.27
2022-10-30T11:48:21.018Z,98944.13
2022-10-30T11:50:49.415Z,98944.50
2022-10-30T11:53:31.551Z,98948.41
2022-10-30T11:55:58.903Z,98944.80
2022-10-30T11:58:33.627Z,98925.58
2022-10-30T12:01:13.367Z,98917.16
2022-10-30T12:03:41.634Z,98911.28
2022-10-30T12:06:09.704Z,98919.80
2022-10-30T12:08:36.854Z,98920.94
2022-10-30T12:11:05.190Z,98923.16
2022-10-30T12:13:39.808Z,98920.23
2022-10-30T12:16:18.097Z,98925.44
2022-10-30T12:18:54.618Z,98927.71
2022-10-30T12:21:21.795Z,98921.37
2022-10-30T12:23:58.156Z,98921.56
2022-10-30T12:26:25.505Z,98923.08
2022-10-30T12:28:58.806Z,98924.80
2022-10-30T12:31:43.153Z,98922.52
2022-10-30T12:34:25.378Z,98920.05
2022-10-30T12:36:55.778Z,98917.77
2022-10-30T12:39:27.066Z,98913.73
2022-10-30T12:41:58.795Z,98909.08
2022-10-30T12:44:32.635Z,98907.11
2022-10-30T12:47:13.978Z,98904.23
2022-10-30T12:52:50.913Z,98902.14
2022-10-30T12:55:21.690Z,98889.19
2022-10-30T12:58:04.345Z,98901.59
2022-10-30T13:00:32.497Z,98898.05
2022-10-30T13:03:15.004Z,98899.79
2022-10-30T13:05:45.844Z,98899.77
2022-10-30T13:08:15.479Z,98892.48
2022-10-30T13:10:45.587Z,98891.73
2022-10-30T13:13:19.187Z,98896.93
2022-10-30T13:15:57.074Z,98897.72
2022-10-30T13:18:25.577Z,98905.05
2022-10-30T13:21:04.385Z,98903.88
2022-10-30T13:23:37.915Z,98901.30
2022-10-30T13:26:17.520Z,98895.73
2022-10-30T13:28:56.092Z,98887.64
2022-10-30T13:31:30.771Z,98881.75
2022-10-30T13:34:03.489Z,98870.42
2022-10-30T13:36:56.940Z,98869.39
2022-10-30T13:40:01.223Z,98873.26
2022-10-30T13:42:32.064Z,98873.80
2022-10-30T13:45:06.806Z,98878.47
2022-10-30T13:47:45.138Z,98881.46
2022-10-30T13:50:25.162Z,98882.55
2022-10-30T13:52:55.154Z,98877.00
2022-10-30T13:55:27.652Z,98875.33
2022-10-30T13:58:01.323Z,98882.64
2022-10-30T14:03:14.131Z,98883.55
2022-10-30T14:06:04.378Z,98885.40
2022-10-30T14:08:46.931Z,98885.41
2022-10-30T14:11:14.237Z,98890.95
2022-10-30T14:13:46.923Z,98887.45
2022-10-30T14:16:46.695Z,98891.89
2022-10-30T14:19:14.910Z,98890.13
2022-10-30T14:21:55.393Z,98891.38
2022-10-30T14:24:30.419Z,98896.42
2022-10-30T14:27:03.907Z,98898.59
2022-10-30T14:29:33.227Z,98899.06
2022-10-30T14:32:01.173Z,98902.58
2022-10-30T14:34:40.824Z,98903.98
2022-10-30T14:37:07.825Z,98903.88
2022-10-30T14:39:45.073Z,98902.95
2022-10-30T14:42:25.340Z,98895.72
2022-10-30T14:45:11.302Z,98896.72
2022-10-30T14:47:52.268Z,98893.58
2022-10-30T14:50:19.433Z,98893.31
2022-10-30T14:52:59.656Z,98896.06
2022-10-30T14:55:32.356Z,98899.77
2022-10-30T14:58:02.661Z,98898.76
2022-10-30T15:00:34.935Z,98894.77
2022-10-30T15:03:20.394Z,98891.06
2022-10-30T15:05:51.811Z,98889.93
2022-10-30T15:08:53.150Z,98887.20
2022-10-30T15:11:26.274Z,98886.65
2022-10-30T15:13:59.303Z,98885.97
2022-10-30T15:16:28.095Z,98888.33
2022-10-30T15:19:02.111Z,98894.67
2022-10-30T15:21:31.275Z,98900.33
2022-10-30T15:23:59.201Z,98904.84
2022-10-30T15:26:33.136Z,98905.46
2022-10-30T15:29:00.539Z,98902.52
2022-10-30T15:31:28.612Z,98905.98
2022-10-30T15:33:55.745Z,98904.90
2022-10-30T15:36:24.700Z,98908.04
2022-10-30T15:39:12.079Z,98905.91
2022-10-30T15:41:48.439Z,98910.02
2022-10-30T15:44:21.457Z,98910.12
2022-10-30T15:46:50.267Z,98904.55
2022-10-30T15:49:21.605Z,98906.85
2022-10-30T15:51:48.650Z,98908.31
2022-10-30T15:54:19.426Z,98909.81
2022-10-30T15:57:17.951Z,98908.25
2022-10-30T15:59:35.557Z,98910.42
2022-10-30T16:02:02.767Z,98910.74
2022-10-30T16:04:36.413Z,98906.38
2022-10-30T16:07:16.827Z,98906.67
2022-10-30T16:09:53.083Z,98900.20
2022-10-30T16:12:21.106Z,98896.98
2022-10-30T16:14:48.146Z,98899.33
2022-10-30T16:17:16.519Z,98898.27
2022-10-30T16:19:48.732Z,98897.95
2022-10-30T16:22:20.577Z,98898.14
2022-10-30T16:24:48.007Z,98899.80
2022-10-30T16:27:17.203Z,98899.05
2022-10-30T16:29:45.653Z,98897.94
2022-10-30T16:32:15.947Z,98900.23
2022-10-30T16:34:43.092Z,98903.42
2022-10-30T16:37:14.969Z,98902.78
2022-10-30T16:39:42.068Z,98905.05
2022-10-30T16:42:22.126Z,98907.02
2022-10-30T16:44:49.435Z,98909.62
2022-10-30T16:47:16.931Z,98910.93
2022-10-30T16:49:48.638Z,98913.55
2022-10-30T16:52:17.293Z,98914.05
2022-10-30T16:55:07.604Z,98916.05
2022-10-30T16:57:41.886Z,98916.42
2022-10-30T17:00:25.934Z,98916.15
2022-10-30T17:02:55.717Z,98916.29
2022-10-30T17:05:37.264Z,98912.58
2022-10-30T17:08:25.369Z,98902.94
2022-10-30T17:10:59.911Z,98904.09
2022-10-30T17:13:42.942Z,98905.70
2022-10-30T17:16:13.841Z,98905.12
2022-10-30T17:18:41.005Z,98904.25
2022-10-30T17:21:10.777Z,98905.09
2022-10-30T17:23:37.960Z,98905.27
2022-10-30T17:26:09.820Z,98900.77
2022-10-30T17:28:37.293Z,98900.13
2022-10-30T17:31:23.404Z,98893.66
2022-10-30T17:34:02.846Z,98891.08
2022-10-30T17:36:29.976Z,98892.73
2022-10-30T17:38:56.985Z,98893.06
2022-10-30T17:41:26.833Z,98892.72
2022-10-30T17:43:55.816Z,98896.20
2022-10-30T17:46:23.889Z,98895.33
2022-10-30T17:48:51.141Z,98895.38
2022-10-30T17:51:18.597Z,98895.73
2022-10-30T17:53:49.226Z,98898.88
2022-10-30T17:56:25.750Z,98901.34
2022-10-30T17:58:52.944Z,98897.33
2022-10-30T18:01:25.025Z,98901.29
2022-10-30T18:03:53.294Z,98902.62
2022-10-30T18:06:22.591Z,98902.45
2022-10-30T18:08:50.943Z,98899.02
2022-10-30T18:11:22.324Z,98897.56
2022-10-30T18:13:50.382Z,98905.13
2022-10-30T18:16:18.386Z,98902.22
2022-10-30T18:18:45.704Z,98903.80
2022-10-30T18:21:16.550Z,98910.83
2022-10-30T18:23:58.997Z,98913.33
2022-10-30T18:26:27.072Z,98906.85
2022-10-30T18:28:54.377Z,98907.29
2022-10-30T18:31:23.161Z,98910.23
2022-10-30T18:33:50.457Z,98911.47
2022-10-30T18:36:19.422Z,98914.85
2022-10-30T18:38:46.826Z,98921.98
2022-10-30T18:41:15.704Z,98925.50
2022-10-30T18:43:46.641Z,98923.73
2022-10-30T18:46:14.987Z,98916.52
2022-10-30T18:48:42.137Z,98914.89
2022-10-30T18:51:23.506Z,98914.84
2022-10-30T18:53:53.827Z,98914.77
2022-10-30T18:56:24.322Z,98918.55
2022-10-30T18:58:54.857Z,98921.23
2022-10-30T19:01:26.306Z,98920.01
2022-10-30T19:03:53.488Z,98913.70
2022-10-30T19:06:22.476Z,98915.13
2022-10-30T19:08:49.624Z,98916.30
2022-10-30T19:11:22.008Z,98921.48
2022-10-30T19:13:52.015Z,98924.23
2022-10-30T19:16:19.391Z,98922.20
2022-10-30T19:18:47.161Z,98926.14
2022-10-30T19:21:25.925Z,98922.75
2022-10-30T19:23:54.755Z,98926.39
2022-10-30T19:26:21.760Z,98927.16
2022-10-30T19:28:48.839Z,98929.80
2022-10-30T19:31:19.482Z,98929.27
2022-10-30T19:33:50.034Z,98931.55
2022-10-30T19:36:34.106Z,98925.55
2022-10-30T19:39:08.580Z,98921.99
2022-10-30T19:41:37.520Z,98926.90
2022-10-30T19:44:04.799Z,98924.85
2022-10-30T19:46:31.884Z,98928.45
2022-10-30T19:48:59.865Z,98932.66
2022-10-30T19:51:28.287Z,98938.98
2022-10-30T19:53:55.562Z,98942.34
2022-10-30T19:56:22.695Z,98940.77
2022-10-30T19:58:50.213Z,98943.70
2022-10-30T20:01:18.757Z,98943.00
2022-10-30T20:03:46.066Z,98938.15
2022-10-30T20:06:14.788Z,98938.97
2022-10-30T20:08:42.143Z,98939.52
2022-10-30T20:11:09.207Z,98937.08
2022-10-30T20:13:37.496Z,98939.90
2022-10-30T20:16:05.595Z,98937.20
2022-10-30T20:18:34.556Z,98939.55
2022-10-30T20:21:03.631Z,98940.55
2022-10-30T20:23:31.294Z,98944.30
2022-10-30T20:26:02.945Z,98942.44
2022-10-30T20:28:35.541Z,98936.27
2022-10-30T20:31:02.706Z,98933.46
2022-10-30T20:33:30.032Z,98936.52
2022-10-30T20:35:57.157Z,98932.77
2022-10-30T20:38:26.522Z,98932.05
2022-10-30T20:40:53.830Z,98934.93
2022-10-30T20:43:28.458Z,98937.11
2022-10-30T20:45:55.546Z,98934.09
2022-10-30T20:48:22.652Z,98928.94
2022-10-30T20:50:52.720Z,98925.45
2022-10-30T20:53:19.682Z,98925.70
2022-10-30T20:55:46.653Z,98920.30
2022-10-30T20:58:13.938Z,98918.51
2022-10-30T21:00:42.218Z,98923.77
2022-10-30T21:03:10.563Z,98916.41
2022-10-30T21:05:43.713Z,98920.59
2022-10-30T21:08:12.751Z,98923.05
2022-10-30T21:10:40.217Z,98919.64
2022-10-30T21:13:09.889Z,98918.90
2022-10-30T21:15:41.775Z,98915.95
2022-10-30T21:18:09.425Z,98916.90
2022-10-30T21:20:37.066Z,98913.95
2022-10-30T21:23:04.765Z,98914.17
2022-10-30T21:25:32.750Z,98912.13
2022-10-30T21:28:00.507Z,98914.82
2022-10-30T21:30:28.032Z,98913.32
2022-10-30T21:32:55.119Z,98919.77
2022-10-30T21:35:22.245Z,98922.45
2022-10-30T21:37:49.535Z,98925.89
2022-10-30T21:40:16.651Z,98922.33
2022-10-30T21:42:43.702Z,98920.98
2022-10-30T21:45:10.749Z,98920.50
2022-10-30T21:47:37.997Z,98923.13
2022-10-30T21:50:07.684Z,98919.92
2022-10-30T21:52:35.076Z,98920.50
2022-10-30T21:55:02.158Z,98923.09
2022-10-30T21:57:29.763Z,98926.75
2022-10-30T21:59:58.916Z,98928.98
2022-10-30T22:02:31.517Z,98933.14
2022-10-30T22:04:58.605Z,98929.02
2022-10-30T22:07:25.741Z,98933.52
2022-10-30T22:09:53.762Z,98937.38
2022-10-30T22:12:20.865Z,98933.60
2022-10-30T22:14:47.815Z,98935.41
2022-10-30T22:17:14.862Z,98937.94
2022-10-30T22:19:41.885Z,98945.76
2022-10-30T22:22:09.417Z,98949.14
2022-10-30T22:24:36.505Z,98953.23
2022-10-30T22:27:03.743Z,98945.23
2022-10-30T22:29:30.723Z,98951.02
2022-10-30T22:31:57.806Z,98947.98
2022-10-30T22:34:24.759Z,98947.89
2022-10-30T22:36:51.846Z,98947.33
2022-10-30T22:39:18.919Z,98941.46
2022-10-30T22:41:45.946Z,98948.80
2022-10-30T22:44:14.163Z,98950.70
2022-10-30T22:46:41.136Z,98955.77
2022-10-30T22:49:08.411Z,98953.93
2022-10-30T22:51:36.804Z,98948.93
2022-10-30T22:54:05.496Z,98947.94
2022-10-30T22:56:33.650Z,98950.80
2022-10-30T22:59:01.661Z,98941.85
2022-10-30T23:01:30.223Z,98932.64
2022-10-30T23:03:58.728Z,98931.04
2022-10-30T23:06:26.553Z,98931.44
2022-10-30T23:08:54.414Z,98934.48
2022-10-30T23:11:22.484Z,98941.13
2022-10-30T23:13:49.552Z,98944.77
2022-10-30T23:16:18.397Z,98948.63
2022-10-30T23:18:45.582Z,98942.30
2022-10-30T23:21:14.668Z,98946.26
2022-10-30T23:23:42.007Z,98948.65
2022-10-30T23:26:14.532Z,98949.53
2022-10-30T23:28:41.750Z,98949.95
2022-10-30T23:31:20.068Z,98954.48
2022-10-30T23:33:50.925Z,98958.76
2022-10-30T23:36:18.352Z,98957.05
2022-10-30T23:38:45.889Z,98953.08
2022-10-30T23:41:12.983Z,98950.09
2022-10-30T23:43:40.212Z,98953.59
2022-10-30T23:46:07.213Z,98950.76
2022-10-30T23:48:34.213Z,98943.08
2022-10-30T23:51:06.455Z,98938.74
2022-10-30T23:53:33.525Z,98936.36
2022-10-30T23:56:00.583Z,98945.41
2022-10-30T23:58:27.654Z,98946.89
